This is the latest recevied weather packets stored in our database for station/object WA9AFM-10. If no packets are shown the sender has not sent any weather packets the latest 1 day(s).
| Time | Temp. | Humidity | Pressure | Rain* | Wind** | Luminosity | Snow |
|---|---|---|---|---|---|---|---|
| 1778046674 | 9.44° C | 76% | 1008 hPa | 0 mm | 0.45 m/s, 211° | - | - |
| 1778044874 | 9.44° C | 78% | 1007.9 hPa | 0 mm | 0.45 m/s, 186° | - | - |
| 1778043074 | 9.44° C | 79% | 1008.1 hPa | 0 mm | 0.45 m/s, 204° | - | - |
| 1778041274 | 9.44° C | 81% | 1008.2 hPa | 0 mm | 1.34 m/s, 200° | - | - |
| 1778039473 | 9.44° C | 82% | 1008 hPa | 0 mm | 0 m/s | - | - |
| 1778037674 | 9.44° C | 84% | 1007.3 hPa | 0 mm | 1.79 m/s, 106° | - | - |
| 1778035872 | 9.44° C | 84% | 1006.7 hPa | 0 mm | 1.34 m/s, 208° | - | - |
| 1778034073 | 9.44° C | 82% | 1006.7 hPa | 0 mm | 1.79 m/s, 248° | - | - |
| 1778032273 | 9.44° C | 82% | 1006.2 hPa | 0 mm | 1.79 m/s, 215° | - | - |
| 1778030473 | 10° C | 82% | 1005.9 hPa | 0 mm | 0 m/s | - | - |
| 1778028673 | 10° C | 80% | 1005 hPa | 0 mm | 0 m/s | - | - |
| 1778026874 | 10.56° C | 76% | 1004.7 hPa | 0 mm | 0.89 m/s, 149° | - | - |
| 1778023273 | 11.67° C | 75% | 1004.7 hPa | 0 mm | 0.45 m/s, 167° | - | - |
| 1778021473 | 11.67° C | 76% | 1003.9 hPa | 0 mm | 1.79 m/s, 211° | - | - |
| 1778012474 | 12.22° C | 81% | 1002.9 hPa | 0 mm | 0.45 m/s, 135° | - | - |
| 1778010674 | 12.78° C | 80% | 1002.1 hPa | 0 mm | 3.13 m/s, 209° | - | - |
| 1778007073 | 13.89° C | 81% | 1001.6 hPa | 0 mm | 0.45 m/s, 90° | - | - |
| 1778005273 | 13.89° C | 81% | 1001.3 hPa | 0 mm | 2.24 m/s, 221° | - | - |
| 1778003474 | 14.44° C | 82% | 1000.8 hPa | 0 mm | 0 m/s | - | - |
| 1778001674 | 14.44° C | 83% | 1000.5 hPa | 0 mm | 2.68 m/s, 201° | - | - |
| 1777999876 | 15.56° C | 82% | 999.6 hPa | 0 mm | 0 m/s | - | - |
| 1777994475 | 22.78° C | 77% | 996.8 hPa | 0 mm | 0 m/s | - | - |
| 1777990873 | 22.22° C | 79% | 996 hPa | 0 mm | 0 m/s | - | - |
| 1777989074 | 22.22° C | 78% | 995.9 hPa | 0 mm | 0 m/s | - | - |
| 1777967535 | 21.11° C | 79% | 994.3 hPa | 0 mm | 1.34 m/s, 318° | - | - |
* Rain latest hour (hover to see other rain measurements)
** Current wind speed in m/s (hover to see current wind gust speed)